Aviation Digital Data Service (ADDS)

Output produced by METARs form (0358 UTC 27 June 2016)
found at http://www.aviationweather.gov/adds/metars/
 
KBFD 270353Z AUTO 17006KT 10SM CLR 21/17 A3010 RMK AO2 SLP175 T02110172
KBFD 270253Z AUTO VRB06KT 10SM CLR 22/17 A3011 RMK AO2 SLP177 T02170172 51006
KBFD 270153Z AUTO 16006KT 10SM CLR 22/17 A3010 RMK AO2 SLP176 T02220172
KBFD 270053Z AUTO 15005KT 10SM CLR 24/17 A3010 RMK AO2 SLP173 T02390172
KBFD 262353Z AUTO 18006KT 10SM FEW046 25/17 A3009 RMK AO2 SLP172 T02500172 10289 20250 56015
KBFD 262253Z AUTO 17008KT 130V200 10SM CLR 27/17 A3009 RMK AO2 SLP173 T02720167
KBFD 262153Z AUTO VRB05KT 10SM FEW065 28/14 A3012 RMK AO2 SLP183 T02830144
KBFD 262053Z AUTO 17007KT 10SM SCT060 28/15 A3014 RMK AO2 SLP190 T02780150 56018
KBFD 261953Z AUTO 18008G14KT 150V210 10SM FEW048 28/15 A3015 RMK AO2 SLP196 T02830150
KBFD 261853Z AUTO 17007KT 140V210 10SM FEW050 BKN060 28/16 A3017 RMK AO2 SLP200 T02780156
KBFD 261753Z AUTO 19008KT 10SM FEW045 BKN060 27/16 A3019 RMK AO2 SLP209 T02670161 10272 20194 58012
KBFD 261653Z AUTO 22007KT 10SM SCT038 BKN055 26/16 A3020 RMK AO2 SLP213 T02560161
KBFD 261553Z AUTO VRB03KT 10SM FEW032 FEW047 25/16 A3022 RMK AO2 SLP219 T02500161
KBFD 261453Z AUTO 15008KT 10SM FEW050 25/17 A3023 RMK AO2 SLP220 T02500167 55001
KBFD 261353Z AUTO 17006KT 10SM CLR 23/16 A3022 RMK AO2 SLP217 T02330161
KBFD 261253Z AUTO 15006KT 10SM CLR 21/16 A3022 RMK AO2 SLP219 T02110161
KBFD 261153Z AUTO 17005KT 10SM CLR 19/16 A3023 RMK AO2 SLP221 T01940156 10194 20128 53005
KBFD 261053Z AUTO 14004KT 4SM BR CLR 15/14 A3022 RMK AO2 SLP218 T01500139
KBFD 261048Z AUTO 13004KT 3SM BR CLR 14/13 A3022 RMK AO2
KBFD 261037Z AUTO 13003KT 1 3/4SM BR CLR 14/13 A3022 RMK AO2 T01440133
KBFD 261007Z AUTO 00000KT 3SM BR CLR 14/13 A3022 RMK AO2 T01390128
KBFD 260953Z AUTO 11003KT 1 1/2SM BR CLR 13/12 A3021 RMK AO2 VIS 1/2V4 SLP217 T01330122
KBFD 260923Z AUTO 14004KT 4SM BR CLR 14/13 A3021 RMK AO2 T01390128
KBFD 260916Z AUTO 12005KT 2 1/2SM BR CLR 13/12 A3021 RMK AO2 T01280122
KBFD 260911Z AUTO 12004KT 3/4SM BR CLR 13/12 A3021 RMK AO2 T01330122
KBFD 260902Z AUTO 12004KT 1 1/2SM BR CLR 13/12 A3021 RMK AO2 T01330122
KBFD 260853Z AUTO 14003KT 5SM BR CLR 14/13 A3021 RMK AO2 SLP217 T01390128 58007
KBFD 260753Z AUTO 00000KT 4SM BR CLR 15/14 A3023 RMK AO2 SLP220 T01500139
KBFD 260653Z AUTO 13004KT 5SM BR CLR 14/13 A3023 RMK AO2 SLP222 T01440133
KBFD 260553Z AUTO 00000KT 5SM BR CLR 15/14 A3024 RMK AO2 SLP223 T01500139 10250 20150 50010
KBFD 260453Z AUTO 00000KT 10SM CLR 18/14 A3024 RMK AO2 SLP225 T01780144 402780100
KBFD 260353Z AUTO 14003KT 10SM CLR 19/15 A3022 RMK AO2 SLP217 T01890150
KBFD 260253Z AUTO 16003KT 10SM CLR 19/15 A3020 RMK AO2 SLP213 T01940150 52001
KBFD 260153Z AUTO 00000KT 10SM CLR 19/16 A3020 RMK AO2 SLP213 T01890156
KBFD 260053Z AUTO 15003KT 10SM FEW060 22/15 A3020 RMK AO2 SLP211 T02170150
KBFD 252353Z AUTO 15004KT 10SM CLR 25/14 A3020 RMK AO2 SLP212 T02500144 10278 20250 50001
KBFD 252253Z AUTO 18004KT 10SM CLR 26/12 A3020 RMK AO2 SLP215 T02610117
KBFD 252153Z AUTO VRB05KT 10SM FEW060 27/12 A3020 RMK AO2 SLP214 T02720117
KBFD 252053Z AUTO 21006KT 10SM FEW055 27/12 A3019 RMK AO2 SLP212 T02720117 58006
KBFD 251953Z AUTO VRB06KT 10SM FEW055 SCT070 27/12 A3021 RMK AO2 SLP218 T02670122
KBFD 251853Z AUTO 00000KT 10SM FEW060 SCT075 26/11 A3021 RMK AO2 SLP220 T02560111
KBFD 251753Z AUTO 10SM CLR 27/11 A3021 RMK AO2 SLP219 T02670111 10267 20161 58008
KBFD 251653Z AUTO 13006KT 10SM FEW045 26/13 A3022 RMK AO2 SLP221 T02560133